Time;durP1;ratioP1;P1;durP2;ratioP2;P2;SDS_P1;SDS_P2;PMS_P1;PMS_P2;Temp;Humidity;BMP_temperature;BMP_pressure;BME280_temperature;BME280_humidity;BME280_pressure;Samples;Min_cycle;Max_cycle;Signal;HPM_P1;HPM_P2
2023/01/27 00:00:39;;;;;;;;;;;;;;;5.97;83.34;102503.25;4980945;28;19994;-51
2023/01/27 00:03:04;;;;;;;;;;;;;;;5.98;82.99;102507.56;4983182;28;20004;-46
2023/01/27 00:05:29;;;;;;;;;;;;;;;5.97;82.88;102507.47;4987824;28;19927;-48
2023/01/27 00:07:57;;;;;;;;;;;;;;;5.90;81.91;102513.75;5003294;28;19951;-49
2023/01/27 00:10:22;;;;;;;;;;;;;;;5.83;82.14;102511.53;4999509;28;19976;-49
2023/01/27 00:15:32;;;;;;;;;;;;;;;5.77;82.42;102506.88;5013798;28;20285;-49
2023/01/27 00:17:57;;;;;;;;;;;;;;;5.74;82.08;102506.63;5003035;28;19920;-51
2023/01/27 00:25:59;;;;;;;;;;;;;;;5.62;82.75;102514.25;5009933;28;20021;-51
2023/01/27 00:28:25;;;;;;;;;;;;;;;5.61;83.20;102516.72;4989765;28;19926;-48
2023/01/27 00:30:50;;;;;;;;;;;;;;;5.61;82.91;102509.06;5018921;28;20346;-50
2023/01/27 00:33:28;;;;;;;;;;;;;;;5.59;82.93;102513.16;4965771;28;19930;-47
2023/01/27 00:36:00;;;;;;;;;;;;;;;5.62;82.75;102515.94;4962231;28;19958;-51
2023/01/27 00:38:26;;;;;;;;;;;;;;;5.62;82.49;102518.47;4965043;28;20400;-50
2023/01/27 00:43:35;;;;;;;;;;;;;;;5.54;82.57;102520.47;4964030;28;20282;-52
2023/01/27 00:46:01;;;;;;;;;;;;;;;5.51;82.82;102519.34;4968038;28;19922;-52
2023/01/27 00:48:26;;;;;;;;;;;;;;;5.55;83.03;102531.56;4967049;28;19936;-52
2023/01/27 00:50:51;;;;;;;;;;;;;;;5.56;83.08;102518.91;4963108;28;19925;-51
2023/01/27 00:53:17;;;;;;;;;;;;;;;5.56;82.74;102526.56;4972390;28;19933;-46
2023/01/27 00:55:42;;;;;;;;;;;;;;;5.57;82.89;102527.44;4963886;28;20345;-44
2023/01/27 00:58:07;;;;;;;;;;;;;;;5.55;82.59;102529.00;4966183;28;19944;-51
2023/01/27 01:00:32;;;;;;;;;;;;;;;5.57;82.97;102527.44;4965007;28;20284;-51
2023/01/27 01:02:57;;;;;;;;;;;;;;;5.58;82.39;102531.78;4994571;28;19922;-50
2023/01/27 01:05:23;;;;;;;;;;;;;;;5.60;82.88;102525.16;4975919;28;19950;-51
2023/01/27 01:07:48;;;;;;;;;;;;;;;5.63;82.75;102522.81;4979997;28;20534;-48
2023/01/27 01:10:14;;;;;;;;;;;;;;;5.64;82.70;102524.56;4971852;28;19961;-51
2023/01/27 01:12:39;;;;;;;;;;;;;;;5.58;82.34;102514.84;4970458;28;19945;-50
2023/01/27 01:15:04;;;;;;;;;;;;;;;5.53;82.63;102526.34;4971542;28;19922;-50
2023/01/27 01:17:30;;;;;;;;;;;;;;;5.50;82.60;102527.78;4972292;28;20291;-49
2023/01/27 01:19:55;;;;;;;;;;;;;;;5.47;82.89;102530.13;4969449;28;19923;-52
2023/01/27 01:22:20;;;;;;;;;;;;;;;5.45;82.85;102542.72;4973590;28;20330;-46
2023/01/27 01:24:45;;;;;;;;;;;;;;;5.38;83.01;102538.81;4968133;28;20288;-51
2023/01/27 01:27:12;;;;;;;;;;;;;;;5.39;83.19;102543.16;4965582;28;20017;-50
2023/01/27 01:29:37;;;;;;;;;;;;;;;5.42;83.26;102552.72;4972163;28;19934;-49
2023/01/27 01:32:02;;;;;;;;;;;;;;;5.43;83.57;102549.38;4970887;28;20299;-49
2023/01/27 01:34:28;;;;;;;;;;;;;;;5.43;83.27;102544.28;4970052;28;19930;-50
2023/01/27 01:36:53;;;;;;;;;;;;;;;5.43;83.35;102543.41;4969854;28;20375;-46
2023/01/27 01:39:18;;;;;;;;;;;;;;;5.40;83.57;102536.41;4969817;28;19997;-47
2023/01/27 01:41:43;;;;;;;;;;;;;;;5.46;83.68;102558.91;4969234;28;19999;-49
2023/01/27 01:44:19;;;;;;;;;;;;;;;5.48;83.21;102552.28;4969558;28;19926;-50
2023/01/27 01:46:44;;;;;;;;;;;;;;;5.48;83.49;102549.75;4971641;28;20010;-47
2023/01/27 01:49:10;;;;;;;;;;;;;;;5.48;82.53;102545.53;4968074;28;19972;-50
2023/01/27 01:51:40;;;;;;;;;;;;;;;5.46;82.65;102554.75;4970738;28;19925;-49
2023/01/27 01:54:08;;;;;;;;;;;;;;;5.43;82.37;102546.84;4973360;28;19918;-49
2023/01/27 01:56:39;;;;;;;;;;;;;;;5.43;82.51;102539.19;4972637;28;19918;-48
2023/01/27 01:59:09;;;;;;;;;;;;;;;5.42;82.20;102551.84;4963672;28;19969;-51
2023/01/27 02:01:35;;;;;;;;;;;;;;;5.42;82.87;102551.84;4966588;28;19925;-46
2023/01/27 02:04:03;;;;;;;;;;;;;;;5.41;82.24;102553.50;4966616;28;19922;-50
2023/01/27 02:06:32;;;;;;;;;;;;;;;5.39;82.23;102549.91;4969040;28;20401;-49
2023/01/27 02:08:58;;;;;;;;;;;;;;;5.32;81.40;102556.22;4965029;28;19918;-51
2023/01/27 02:11:23;;;;;;;;;;;;;;;5.25;81.35;102548.00;4965582;28;19933;-48
2023/01/27 02:13:48;;;;;;;;;;;;;;;5.22;81.67;102548.66;4967784;28;20320;-50
2023/01/27 02:16:14;;;;;;;;;;;;;;;5.22;81.61;102550.31;4965569;28;19975;-47
2023/01/27 02:18:40;;;;;;;;;;;;;;;5.21;81.75;102549.41;4967031;28;19930;-48
2023/01/27 02:21:05;;;;;;;;;;;;;;;5.25;82.22;102553.09;4966582;28;20279;-50
2023/01/27 02:23:39;;;;;;;;;;;;;;;5.27;81.77;102561.75;4967153;28;19937;-46
2023/01/27 02:26:05;;;;;;;;;;;;;;;5.27;81.94;102562.63;4965965;28;20455;-48
2023/01/27 02:28:30;;;;;;;;;;;;;;;5.28;82.31;102561.00;4966085;28;20005;-50
2023/01/27 02:30:57;;;;;;;;;;;;;;;5.31;82.50;102566.31;4971212;28;20576;-49
2023/01/27 02:33:23;;;;;;;;;;;;;;;5.34;82.80;102557.25;4969132;28;19987;-50
2023/01/27 02:36:02;;;;;;;;;;;;;;;5.34;82.50;102564.91;4973922;28;19918;-51
2023/01/27 02:38:29;;;;;;;;;;;;;;;5.29;82.36;102571.31;4986759;28;20666;-51
2023/01/27 02:40:57;;;;;;;;;;;;;;;5.28;82.62;102573.75;4972030;28;20343;-50
2023/01/27 02:43:22;;;;;;;;;;;;;;;5.24;82.48;102566.63;4967785;28;20716;-50
2023/01/27 02:45:48;;;;;;;;;;;;;;;5.21;82.68;102577.47;4970308;28;19925;-49
2023/01/27 02:48:14;;;;;;;;;;;;;;;5.23;82.88;102575.06;4961541;28;20021;-48
2023/01/27 02:50:39;;;;;;;;;;;;;;;5.19;82.69;102573.91;4967866;28;20324;-49
2023/01/27 02:53:04;;;;;;;;;;;;;;;5.15;82.57;102581.19;4962778;28;19923;-50
2023/01/27 02:55:29;;;;;;;;;;;;;;;5.09;82.38;102571.41;4972109;28;19922;-51
2023/01/27 02:57:55;;;;;;;;;;;;;;;5.08;82.75;102577.28;4980053;28;19975;-51
2023/01/27 03:00:20;;;;;;;;;;;;;;;5.07;82.71;102572.97;4969548;28;19926;-49
2023/01/27 03:02:45;;;;;;;;;;;;;;;5.07;82.85;102575.53;4971026;28;19945;-51
2023/01/27 03:05:10;;;;;;;;;;;;;;;5.05;82.73;102580.50;4986993;28;19918;-47
2023/01/27 03:07:36;;;;;;;;;;;;;;;5.03;83.14;102581.13;4969253;28;19976;-49
2023/01/27 03:10:01;;;;;;;;;;;;;;;5.02;83.30;102576.81;4967720;28;19983;-52
2023/01/27 03:12:26;;;;;;;;;;;;;;;5.04;83.30;102583.84;4966551;28;20009;-51
2023/01/27 03:20:21;;;;;;;;;;;;;;;5.06;83.26;102587.38;4969849;28;19924;-51
2023/01/27 03:22:46;;;;;;;;;;;;;;;5.05;83.24;102584.72;4967337;28;20310;-49
2023/01/27 03:25:11;;;;;;;;;;;;;;;5.06;83.56;102582.28;4968862;28;19922;-50
2023/01/27 03:27:37;;;;;;;;;;;;;;;5.07;83.59;102581.50;4970451;28;19940;-47
2023/01/27 03:30:02;;;;;;;;;;;;;;;5.06;83.58;102586.50;4970941;28;19930;-47
2023/01/27 03:32:29;;;;;;;;;;;;;;;5.07;84.16;102591.69;4968755;28;19933;-51
2023/01/27 03:34:57;;;;;;;;;;;;;;;5.10;84.00;102593.63;4975004;28;20397;-47
2023/01/27 03:48:19;;;;;;;;;;;;;;;5.11;84.59;102605.59;4969380;28;19941;-50
2023/01/27 03:50:51;;;;;;;;;;;;;;;5.12;84.70;102604.81;4971965;28;19922;-50
2023/01/27 03:53:17;;;;;;;;;;;;;;;5.16;84.94;102605.94;4967501;28;19930;-52
2023/01/27 03:55:42;;;;;;;;;;;;;;;5.17;85.01;102617.94;4969522;28;20410;-51
2023/01/27 03:58:18;;;;;;;;;;;;;;;5.15;84.80;102615.25;5002840;28;19929;-50
2023/01/27 04:00:54;;;;;;;;;;;;;;;5.14;85.08;102608.38;4971959;28;20009;-52
2023/01/27 04:08:48;;;;;;;;;;;;;;;5.05;84.86;102615.31;4973441;28;20425;-50
2023/01/27 04:14:01;;;;;;;;;;;;;;;5.06;85.52;102612.00;4971977;28;19972;-46
2023/01/27 04:16:30;;;;;;;;;;;;;;;5.06;85.46;102612.88;4976121;28;19932;-50
2023/01/27 04:18:55;;;;;;;;;;;;;;;5.02;85.40;102607.41;4976418;28;19922;-49
2023/01/27 04:21:21;;;;;;;;;;;;;;;4.98;85.88;102611.41;4974551;28;20629;-51
2023/01/27 04:23:46;;;;;;;;;;;;;;;4.97;86.33;102607.03;4980618;28;20339;-52
2023/01/27 04:26:11;;;;;;;;;;;;;;;4.98;86.34;102607.97;4990781;28;19918;-50
2023/01/27 04:28:37;;;;;;;;;;;;;;;4.95;86.03;102606.03;4987519;28;20021;-50
2023/01/27 04:31:02;;;;;;;;;;;;;;;4.91;85.68;102598.91;4978668;28;19922;-46
2023/01/27 04:33:28;;;;;;;;;;;;;;;4.88;85.89;102606.34;4972589;28;19977;-48
2023/01/27 04:35:54;;;;;;;;;;;;;;;4.90;85.91;102611.53;4976507;28;20042;-51
2023/01/27 04:38:19;;;;;;;;;;;;;;;4.90;85.88;102612.44;4975824;28;19922;-47
2023/01/27 04:40:44;;;;;;;;;;;;;;;4.91;85.96;102620.97;4982571;28;19925;-51
2023/01/27 04:43:09;;;;;;;;;;;;;;;4.93;86.38;102617.78;4983400;28;19922;-50
2023/01/27 04:45:34;;;;;;;;;;;;;;;4.94;86.25;102627.22;4984013;28;19977;-49
2023/01/27 04:48:00;;;;;;;;;;;;;;;4.95;86.50;102625.56;4983050;28;20299;-50
2023/01/27 04:50:25;;;;;;;;;;;;;;;4.98;86.87;102629.25;4997159;28;20285;-45
2023/01/27 04:52:50;;;;;;;;;;;;;;;5.01;86.64;102628.59;4980045;28;19974;-50
2023/01/27 04:55:15;;;;;;;;;;;;;;;5.01;86.87;102631.13;4974725;28;19922;-51
2023/01/27 04:57:41;;;;;;;;;;;;;;;5.04;86.73;102633.94;4974857;28;19952;-52
2023/01/27 05:00:06;;;;;;;;;;;;;;;5.03;86.69;102637.22;4977305;28;19926;-50
2023/01/27 05:02:32;;;;;;;;;;;;;;;5.01;86.54;102633.69;4973718;28;19926;-48
2023/01/27 05:04:57;;;;;;;;;;;;;;;5.01;86.87;102629.47;4976440;28;19932;-50
2023/01/27 05:07:22;;;;;;;;;;;;;;;4.99;86.47;102635.22;4971700;28;20489;-48
2023/01/27 05:09:48;;;;;;;;;;;;;;;5.00;86.19;102637.00;4974153;28;19933;-50
2023/01/27 05:12:13;;;;;;;;;;;;;;;4.96;86.02;102640.97;4972469;28;20290;-50
2023/01/27 05:14:38;;;;;;;;;;;;;;;4.92;85.91;102638.06;4987064;28;19932;-47
2023/01/27 05:17:04;;;;;;;;;;;;;;;4.90;85.63;102640.47;4973802;28;19922;-51
2023/01/27 05:19:29;;;;;;;;;;;;;;;4.87;85.38;102637.69;4971279;28;19971;-48
2023/01/27 05:21:54;;;;;;;;;;;;;;;4.86;84.90;102645.22;4985319;28;19934;-51
2023/01/27 05:24:19;;;;;;;;;;;;;;;4.84;84.70;102653.63;4971619;28;19931;-50
2023/01/27 05:26:45;;;;;;;;;;;;;;;4.80;84.48;102653.28;4979426;28;19933;-48
2023/01/27 05:29:10;;;;;;;;;;;;;;;4.82;84.95;102656.81;4977249;28;20311;-48
2023/01/27 05:31:35;;;;;;;;;;;;;;;4.83;84.38;102656.06;4973471;28;19922;-50
2023/01/27 05:34:01;;;;;;;;;;;;;;;4.84;84.30;102657.84;4996378;28;22205;-43
2023/01/27 05:36:27;;;;;;;;;;;;;;;4.85;84.68;102662.16;4983648;28;19922;-49
2023/01/27 05:38:53;;;;;;;;;;;;;;;4.87;83.60;102662.31;4978879;28;19916;-48
2023/01/27 05:41:19;;;;;;;;;;;;;;;4.80;83.88;102661.81;4992125;28;19922;-48
2023/01/27 05:43:45;;;;;;;;;;;;;;;4.78;83.44;102665.88;4980584;28;20313;-51
2023/01/27 05:46:12;;;;;;;;;;;;;;;4.71;83.36;102667.81;5000616;28;19961;-49
2023/01/27 05:48:41;;;;;;;;;;;;;;;4.71;83.91;102667.81;5002086;28;19926;-47
2023/01/27 05:51:07;;;;;;;;;;;;;;;4.68;83.79;102658.28;4997143;28;20363;-49
2023/01/27 05:53:32;;;;;;;;;;;;;;;4.67;83.99;102666.69;4995656;28;20045;-46
2023/01/27 05:55:58;;;;;;;;;;;;;;;4.70;84.06;102666.03;5008995;28;20016;-49
2023/01/27 05:58:23;;;;;;;;;;;;;;;4.73;83.67;102674.84;4995267;28;19930;-50
2023/01/27 06:00:49;;;;;;;;;;;;;;;4.75;84.03;102674.94;4977076;28;20013;-59
2023/01/27 06:03:14;;;;;;;;;;;;;;;4.73;83.92;102667.19;4989755;28;19999;-51
2023/01/27 06:05:47;;;;;;;;;;;;;;;4.76;84.12;102677.63;4983863;28;20320;-50
2023/01/27 06:08:13;;;;;;;;;;;;;;;4.81;84.14;102676.34;4979736;28;19931;-44
2023/01/27 06:10:38;;;;;;;;;;;;;;;4.82;83.65;102674.66;4970212;28;19921;-48
2023/01/27 06:13:03;;;;;;;;;;;;;;;4.80;83.76;102679.66;4984988;28;19922;-46
2023/01/27 06:15:28;;;;;;;;;;;;;;;4.83;84.04;102677.34;4973629;28;19930;-51
2023/01/27 06:17:54;;;;;;;;;;;;;;;4.89;83.83;102689.69;4971800;28;19941;-51
2023/01/27 06:20:19;;;;;;;;;;;;;;;4.88;83.32;102689.56;4980918;28;19947;-50
2023/01/27 06:22:45;;;;;;;;;;;;;;;4.88;83.59;102680.25;4979395;28;19929;-50
2023/01/27 06:25:10;;;;;;;;;;;;;;;4.91;83.43;102684.69;4979496;28;19979;-49
2023/01/27 06:27:35;;;;;;;;;;;;;;;4.96;83.49;102685.97;4986628;28;20390;-48
2023/01/27 06:30:01;;;;;;;;;;;;;;;4.94;83.38;102697.69;4979323;28;20037;-52
2023/01/27 06:32:26;;;;;;;;;;;;;;;4.93;83.14;102693.38;4975543;28;19930;-50
2023/01/27 06:34:51;;;;;;;;;;;;;;;4.93;83.31;102693.38;4974176;28;19922;-51
2023/01/27 06:37:16;;;;;;;;;;;;;;;4.95;83.16;102699.47;4969952;28;19979;-53
2023/01/27 06:39:42;;;;;;;;;;;;;;;4.96;82.83;102689.41;4971189;28;20004;-49
2023/01/27 06:42:08;;;;;;;;;;;;;;;4.97;82.83;102692.84;4971731;28;20025;-48
2023/01/27 06:44:33;;;;;;;;;;;;;;;4.99;82.75;102691.31;4975014;28;20322;-48
2023/01/27 06:46:59;;;;;;;;;;;;;;;4.99;82.81;102686.22;4972582;28;19926;-50
2023/01/27 06:49:24;;;;;;;;;;;;;;;5.03;82.88;102693.31;4980842;28;19926;-51
2023/01/27 06:51:49;;;;;;;;;;;;;;;5.06;82.70;102696.13;4983614;28;19932;-49
2023/01/27 06:54:15;;;;;;;;;;;;;;;5.08;82.19;102702.22;4969965;28;19922;-47
2023/01/27 06:56:40;;;;;;;;;;;;;;;5.11;82.62;102705.94;4998553;28;19916;-48
2023/01/27 06:59:05;;;;;;;;;;;;;;;5.14;82.49;102697.63;4971213;28;19972;-51
2023/01/27 07:01:30;;;;;;;;;;;;;;;5.17;82.14;102699.53;4967882;28;19922;-50
2023/01/27 07:03:56;;;;;;;;;;;;;;;5.17;81.65;102705.53;4975281;28;20062;-52
2023/01/27 07:06:21;;;;;;;;;;;;;;;5.21;81.91;102701.53;4973336;28;19966;-51
2023/01/27 07:08:49;;;;;;;;;;;;;;;5.22;81.75;102701.69;4970046;28;19934;-51
2023/01/27 07:11:14;;;;;;;;;;;;;;;5.24;81.64;102701.78;4973213;28;20341;-50
2023/01/27 07:13:40;;;;;;;;;;;;;;;5.25;81.65;102701.91;4973252;28;19914;-50
2023/01/27 07:16:05;;;;;;;;;;;;;;;5.24;80.89;102699.25;4971740;28;19992;-52
2023/01/27 07:18:30;;;;;;;;;;;;;;;5.24;81.09;102697.59;4970276;28;19930;-47
2023/01/27 07:20:55;;;;;;;;;;;;;;;5.27;81.22;102702.91;4979298;28;19922;-51
2023/01/27 07:23:21;;;;;;;;;;;;;;;5.29;80.98;102703.94;4994841;28;19918;-51
2023/01/27 07:25:46;;;;;;;;;;;;;;;5.31;80.97;102702.41;4974752;28;20020;-52
2023/01/27 07:28:11;;;;;;;;;;;;;;;5.33;80.27;102705.06;4991401;28;20317;-51
2023/01/27 07:30:38;;;;;;;;;;;;;;;5.33;80.72;102708.50;4971758;28;20342;-50
2023/01/27 07:33:04;;;;;;;;;;;;;;;5.31;80.47;102702.41;4976541;28;19926;-48
2023/01/27 07:35:29;;;;;;;;;;;;;;;5.32;80.58;102714.38;4979438;28;19918;-48
2023/01/27 07:37:55;;;;;;;;;;;;;;;5.34;81.07;102714.50;4998584;28;20042;-48
2023/01/27 07:40:21;;;;;;;;;;;;;;;5.39;81.31;102716.63;4998622;28;19964;-50
2023/01/27 07:42:46;;;;;;;;;;;;;;;5.39;80.86;102721.72;4973120;28;19954;-51
2023/01/27 07:45:11;;;;;;;;;;;;;;;5.39;80.69;102724.28;4992957;28;20478;-51
2023/01/27 07:47:36;;;;;;;;;;;;;;;5.41;80.82;102726.09;4976841;28;19961;-49
2023/01/27 07:50:02;;;;;;;;;;;;;;;5.39;79.96;102728.50;4973311;28;19930;-51
2023/01/27 07:52:27;;;;;;;;;;;;;;;5.39;80.14;102725.94;4976525;28;19980;-51
2023/01/27 07:54:52;;;;;;;;;;;;;;;5.39;80.56;102733.59;4987364;28;19925;-50
2023/01/27 07:57:18;;;;;;;;;;;;;;;5.37;80.65;102718.19;4992433;28;19961;-50
2023/01/27 07:59:43;;;;;;;;;;;;;;;5.37;80.50;102725.84;4979123;28;19958;-49
2023/01/27 08:02:09;;;;;;;;;;;;;;;5.33;79.81;102734.00;4983004;28;19926;-50
2023/01/27 08:04:34;;;;;;;;;;;;;;;5.32;80.37;102734.78;4985804;28;20417;-51
2023/01/27 08:07:00;;;;;;;;;;;;;;;5.32;80.75;102719.47;4991861;28;19922;-51
2023/01/27 08:09:25;;;;;;;;;;;;;;;5.32;79.92;102726.22;4992100;28;19922;-50
2023/01/27 08:11:51;;;;;;;;;;;;;;;5.31;80.66;102730.44;4975779;28;19925;-48
2023/01/27 08:14:16;;;;;;;;;;;;;;;5.31;80.38;102735.56;4981654;28;19966;-51
2023/01/27 08:16:41;;;;;;;;;;;;;;;5.29;80.25;102728.56;4972628;28;19925;-49
2023/01/27 08:19:06;;;;;;;;;;;;;;;5.31;80.76;102732.13;4983626;28;20368;-46
2023/01/27 08:21:31;;;;;;;;;;;;;;;5.31;80.56;102742.31;4977278;28;20294;-47
2023/01/27 08:23:57;;;;;;;;;;;;;;;5.30;80.56;102746.53;4977018;28;20288;-48
2023/01/27 08:26:22;;;;;;;;;;;;;;;5.29;80.53;102743.88;4972033;28;19922;-52
2023/01/27 08:28:48;;;;;;;;;;;;;;;5.28;80.13;102744.66;4976148;28;19917;-52
2023/01/27 08:31:14;;;;;;;;;;;;;;;5.23;80.44;102746.81;5004137;28;20017;-47
2023/01/27 08:33:40;;;;;;;;;;;;;;;5.25;80.71;102752.91;4991584;28;20279;-51
2023/01/27 08:36:07;;;;;;;;;;;;;;;5.26;80.75;102752.16;4986132;28;19933;-52
2023/01/27 08:38:36;;;;;;;;;;;;;;;5.28;80.78;102750.63;4973295;28;19966;-51
2023/01/27 08:41:05;;;;;;;;;;;;;;;5.30;80.85;102746.53;4998526;28;20337;-47
2023/01/27 08:43:31;;;;;;;;;;;;;;;5.30;80.85;102759.28;4980246;28;19922;-51
2023/01/27 08:45:57;;;;;;;;;;;;;;;5.26;80.48;102761.47;4973412;28;20021;-50
2023/01/27 08:48:22;;;;;;;;;;;;;;;5.26;80.63;102766.56;4974264;28;19952;-48
2023/01/27 08:50:49;;;;;;;;;;;;;;;5.26;81.09;102759.78;4979941;28;19915;-45
2023/01/27 08:53:14;;;;;;;;;;;;;;;5.25;80.57;102765.69;4987077;28;20000;-50
2023/01/27 08:55:39;;;;;;;;;;;;;;;5.26;80.81;102767.44;4976216;28;20014;-50
2023/01/27 08:58:04;;;;;;;;;;;;;;;5.22;80.15;102782.41;4972948;28;19930;-52
2023/01/27 09:00:30;;;;;;;;;;;;;;;5.18;80.49;102790.56;4973584;28;19918;-52
2023/01/27 09:02:55;;;;;;;;;;;;;;;5.15;80.64;102791.19;4980460;28;19925;-48
2023/01/27 09:05:21;;;;;;;;;;;;;;;5.13;80.68;102784.22;4977221;28;19964;-52
2023/01/27 09:07:46;;;;;;;;;;;;;;;5.13;80.80;102790.19;4978557;28;19933;-49
2023/01/27 09:10:12;;;;;;;;;;;;;;;5.17;80.93;102793.91;4971395;28;19931;-52
2023/01/27 09:12:37;;;;;;;;;;;;;;;5.17;80.40;102799.00;4979670;28;19926;-52
2023/01/27 09:15:03;;;;;;;;;;;;;;;5.19;80.21;102795.78;4975329;28;19951;-50
2023/01/27 09:17:28;;;;;;;;;;;;;;;5.15;80.05;102798.84;4976970;28;19920;-52
2023/01/27 09:19:53;;;;;;;;;;;;;;;5.16;80.38;102795.56;4972589;28;19956;-51
2023/01/27 09:22:18;;;;;;;;;;;;;;;5.19;80.09;102788.13;4974812;28;20430;-50
2023/01/27 09:24:44;;;;;;;;;;;;;;;5.19;79.53;102803.44;4972026;28;19925;-52
2023/01/27 09:27:09;;;;;;;;;;;;;;;5.19;79.58;102803.44;4972657;28;20287;-50
2023/01/27 09:29:35;;;;;;;;;;;;;;;5.21;79.71;102795.91;4972762;28;21487;-52
2023/01/27 09:32:01;;;;;;;;;;;;;;;5.17;78.86;102804.09;4980387;28;19922;-52
2023/01/27 09:34:26;;;;;;;;;;;;;;;5.12;79.27;102798.63;4995233;28;19927;-52
2023/01/27 09:36:53;;;;;;;;;;;;;;;5.12;79.41;102806.28;4972696;28;19929;-52
2023/01/27 09:39:19;;;;;;;;;;;;;;;5.12;79.34;102808.81;4974504;28;20362;-48
2023/01/27 09:41:56;;;;;;;;;;;;;;;5.15;79.50;102810.72;4972617;28;19979;-52
2023/01/27 09:44:40;;;;;;;;;;;;;;;5.10;78.56;102821.44;4975603;28;20406;-51
2023/01/27 09:47:05;;;;;;;;;;;;;;;5.08;78.84;102819.53;4972987;28;20011;-49
2023/01/27 09:49:38;;;;;;;;;;;;;;;5.05;78.43;102822.72;4985888;28;20003;-52
2023/01/27 09:52:39;;;;;;;;;;;;;;;5.06;78.72;102821.97;4972312;28;19918;-52
2023/01/27 09:55:04;;;;;;;;;;;;;;;4.98;78.08;102827.22;4936985;28;19922;-50
2023/01/27 09:57:32;;;;;;;;;;;;;;;4.92;78.94;102829.25;4965776;28;20329;-52
2023/01/27 10:00:07;;;;;;;;;;;;;;;4.90;79.04;102838.41;4972448;28;19918;-48
2023/01/27 10:02:41;;;;;;;;;;;;;;;4.86;78.89;102841.50;4971323;28;19922;-51
2023/01/27 10:05:06;;;;;;;;;;;;;;;4.80;79.49;102845.31;4992529;28;19924;-49
2023/01/27 10:07:34;;;;;;;;;;;;;;;4.77;79.85;102837.41;4973053;28;19925;-49
2023/01/27 10:10:07;;;;;;;;;;;;;;;4.81;80.07;102834.34;4972847;28;20331;-51
2023/01/27 10:12:32;;;;;;;;;;;;;;;4.84;79.98;102828.59;4971380;28;21025;-52
2023/01/27 10:14:57;;;;;;;;;;;;;;;4.86;80.08;102832.19;4974093;28;19922;-52
2023/01/27 10:17:47;;;;;;;;;;;;;;;4.86;79.75;102826.22;4976084;28;19914;-50
2023/01/27 10:20:31;;;;;;;;;;;;;;;4.87;80.08;102823.78;4975816;28;19998;-47
2023/01/27 10:22:59;;;;;;;;;;;;;;;4.93;80.41;102821.72;4971175;28;20296;-52
2023/01/27 10:25:30;;;;;;;;;;;;;;;4.99;80.32;102819.69;4985742;28;19942;-49
2023/01/27 10:27:57;;;;;;;;;;;;;;;5.07;80.59;102807.56;4972904;28;19922;-51
2023/01/27 10:30:30;;;;;;;;;;;;;;;5.16;79.98;102804.84;4972042;28;19943;-52
2023/01/27 10:32:59;;;;;;;;;;;;;;;5.24;79.77;102809.81;4977590;28;20531;-49
2023/01/27 10:35:30;;;;;;;;;;;;;;;5.29;79.28;102805.97;4975831;28;19925;-52
2023/01/27 10:37:55;;;;;;;;;;;;;;;5.28;79.36;102822.06;4982122;28;19956;-52
2023/01/27 10:40:24;;;;;;;;;;;;;;;5.27;79.57;102810.03;4975988;28;19945;-51
2023/01/27 10:43:09;;;;;;;;;;;;;;;5.31;79.90;102806.97;4992466;28;19926;-51
2023/01/27 10:45:36;;;;;;;;;;;;;;;5.37;79.44;102814.22;4972082;28;20382;-49
2023/01/27 10:48:11;;;;;;;;;;;;;;;5.38;78.87;102811.78;4974417;28;19926;-51
2023/01/27 10:50:42;;;;;;;;;;;;;;;5.36;78.93;102808.25;4973158;28;19954;-44
2023/01/27 10:53:16;;;;;;;;;;;;;;;5.38;79.42;102808.34;4983645;28;19914;-48
2023/01/27 10:55:49;;;;;;;;;;;;;;;5.42;79.03;102809.50;4972003;28;19918;-52
2023/01/27 10:58:19;;;;;;;;;;;;;;;5.45;79.33;102807.19;4972307;28;20349;-49
2023/01/27 11:00:45;;;;;;;;;;;;;;;5.43;78.57;102808.72;4972616;28;19918;-52
2023/01/27 11:03:20;;;;;;;;;;;;;;;5.41;78.76;102805.19;4972549;28;20349;-51
2023/01/27 11:05:54;;;;;;;;;;;;;;;5.41;78.96;102810.28;4985291;28;19976;-48
2023/01/27 11:08:23;;;;;;;;;;;;;;;5.43;79.20;102803.63;4986841;28;19944;-51
2023/01/27 11:13:36;;;;;;;;;;;;;;;5.38;78.86;102808.34;4974680;28;19981;-51
2023/01/27 11:16:03;;;;;;;;;;;;;;;5.32;79.11;102805.31;4970941;28;19964;-52
2023/01/27 11:18:29;;;;;;;;;;;;;;;5.30;79.25;102805.19;4975356;28;20027;-47
2023/01/27 11:21:14;;;;;;;;;;;;;;;5.32;79.63;102802.75;4970096;28;20302;-50
2023/01/27 11:23:42;;;;;;;;;;;;;;;5.33;79.49;102802.88;4973969;28;20374;-51
2023/01/27 11:26:10;;;;;;;;;;;;;;;5.36;79.90;102805.69;4970045;28;20028;-52
2023/01/27 11:28:44;;;;;;;;;;;;;;;5.37;79.57;102796.38;4972800;28;19930;-51
2023/01/27 11:31:28;;;;;;;;;;;;;;;5.40;79.58;102804.28;4973518;28;20390;-47
2023/01/27 11:33:56;;;;;;;;;;;;;;;5.42;79.60;102799.28;4979053;28;19918;-51
2023/01/27 11:36:22;;;;;;;;;;;;;;;5.44;79.69;102795.19;4975851;28;19959;-49
2023/01/27 11:38:47;;;;;;;;;;;;;;;5.46;79.00;102796.19;4997895;28;19926;-50
2023/01/27 11:41:13;;;;;;;;;;;;;;;5.45;78.91;102797.88;4975453;28;20413;-47
2023/01/27 11:43:38;;;;;;;;;;;;;;;5.47;79.47;102798.00;4972156;28;19926;-51
2023/01/27 11:46:05;;;;;;;;;;;;;;;5.48;79.54;102795.56;4976891;28;20017;-52
2023/01/27 11:48:39;;;;;;;;;;;;;;;5.44;78.68;102793.53;4981227;28;20371;-53
2023/01/27 11:51:10;;;;;;;;;;;;;;;5.39;79.50;102792.28;4975508;28;20379;-52
2023/01/27 11:53:39;;;;;;;;;;;;;;;5.42;79.62;102786.53;4974358;28;20370;-51
2023/01/27 11:56:07;;;;;;;;;;;;;;;5.43;79.26;102786.66;4987888;28;20438;-51
2023/01/27 11:58:39;;;;;;;;;;;;;;;5.41;78.48;102787.31;4974521;28;19929;-52
2023/01/27 12:01:10;;;;;;;;;;;;;;;5.38;79.13;102782.84;4975678;28;20439;-52
2023/01/27 12:03:41;;;;;;;;;;;;;;;5.38;78.91;102786.28;4990154;28;19917;-52
2023/01/27 12:06:11;;;;;;;;;;;;;;;5.35;78.87;102788.59;4983555;28;20310;-51
2023/01/27 12:08:39;;;;;;;;;;;;;;;5.33;79.16;102785.03;4996281;28;19924;-46
2023/01/27 12:11:27;;;;;;;;;;;;;;;5.33;79.37;102787.56;4974176;28;20305;-52
2023/01/27 12:13:54;;;;;;;;;;;;;;;5.36;79.27;102785.28;4966531;28;19919;-52
2023/01/27 12:16:20;;;;;;;;;;;;;;;5.39;78.91;102782.97;4975249;28;20345;-52
2023/01/27 12:18:58;;;;;;;;;;;;;;;5.37;78.98;102789.59;4977722;28;20029;-47
2023/01/27 12:21:33;;;;;;;;;;;;;;;5.32;78.33;102784.91;4975161;28;20340;-52
2023/01/27 12:23:59;;;;;;;;;;;;;;;5.31;78.64;102785.69;4979380;28;19952;-52
2023/01/27 12:26:35;;;;;;;;;;;;;;;5.30;78.60;102778.81;4995541;28;19952;-52
2023/01/27 12:29:03;;;;;;;;;;;;;;;5.32;79.06;102784.91;4973901;28;19918;-50
2023/01/27 12:31:30;;;;;;;;;;;;;;;5.35;79.18;102780.94;4977799;28;19993;-52
2023/01/27 12:34:00;;;;;;;;;;;;;;;5.36;78.71;102774.19;4975424;28;20333;-50
2023/01/27 12:36:26;;;;;;;;;;;;;;;5.32;78.61;102777.25;4970965;28;19940;-48
2023/01/27 12:38:56;;;;;;;;;;;;;;;5.29;78.71;102766.81;5009611;28;19918;-52
2023/01/27 12:41:32;;;;;;;;;;;;;;;5.27;78.42;102774.31;4973808;28;19925;-51
2023/01/27 12:44:05;;;;;;;;;;;;;;;5.25;78.34;102768.22;4973961;28;19925;-52
2023/01/27 12:46:31;;;;;;;;;;;;;;;5.27;78.32;102763.22;4972066;28;19933;-49
2023/01/27 12:49:09;;;;;;;;;;;;;;;5.29;78.20;102757.50;4977931;28;19922;-52
2023/01/27 12:51:34;;;;;;;;;;;;;;;5.32;78.33;102761.94;4976040;28;19914;-52
2023/01/27 12:54:15;;;;;;;;;;;;;;;5.34;78.36;102758.78;4977121;28;20379;-52
2023/01/27 12:56:40;;;;;;;;;;;;;;;5.39;78.76;102746.34;4974113;28;19997;-51
2023/01/27 12:59:12;;;;;;;;;;;;;;;5.45;77.48;102753.59;4976217;28;20449;-47
2023/01/27 13:01:40;;;;;;;;;;;;;;;5.47;78.55;102750.41;4973610;28;19964;-49
2023/01/27 13:04:22;;;;;;;;;;;;;;;5.51;78.17;102748.97;4974441;28;19914;-48
2023/01/27 13:06:49;;;;;;;;;;;;;;;5.50;77.61;102749.75;4965861;28;19937;-49
2023/01/27 13:09:26;;;;;;;;;;;;;;;5.50;78.38;102739.56;4974287;28;20003;-52
2023/01/27 13:11:52;;;;;;;;;;;;;;;5.52;77.55;102743.09;4975502;28;19918;-52
2023/01/27 13:14:18;;;;;;;;;;;;;;;5.52;77.79;102743.09;4973230;28;19952;-49
2023/01/27 13:16:50;;;;;;;;;;;;;;;5.50;77.52;102740.44;4978298;28;20035;-51
2023/01/27 13:19:16;;;;;;;;;;;;;;;5.55;77.98;102743.34;4973252;28;20696;-52
2023/01/27 13:21:43;;;;;;;;;;;;;;;5.57;78.18;102741.81;4975893;28;20012;-55
2023/01/27 13:24:14;;;;;;;;;;;;;;;5.60;77.30;102744.59;4973738;28;19922;-49
2023/01/27 13:26:39;;;;;;;;;;;;;;;5.61;76.50;102747.28;4975487;28;19932;-47